Downstream station:
SHEF ID: LSGM7 Little Sugar Creek near Pinevill
STATION TYPE:
PRECIP STAGE STAGE(2) RIV-FLOW VOLTAGE
in ft ft cfs volt
Ccp-Rev Ccp-Rev Ccp-Rev Ccp-Rev Ccp-Rev
(US/Central)
03/31 00:00 0.00 4.90 4.88 718 12.47
03/31 01:00 0.00 4.93 4.90 731 12.47
03/31 02:00 0.00 4.93 4.91 731 12.47
03/31 03:00 0.00 4.95 4.92 740 12.47
03/31 04:00 0.00 4.96 4.94 744 12.47
03/31 05:00 0.00 5.00 4.94 762 12.47
03/31 06:00 0.00 5.03 4.94 776 12.47
03/31 07:00 0.00 4.98 4.94 753 12.47
03/31 08:00 0.00 4.97 4.95 749 12.47
03/31 09:00 0.00 5.03 4.95 776 12.47
03/31 10:00 0.00 4.97 4.95 749 12.71
03/31 11:00 0.00 4.98 4.94 753 12.94
03/31 12:00 0.02 4.98 4.94 753 13.17
03/31 13:00 0.01 5.00 4.93 762 13.41
03/31 14:00 0.00 4.95 4.92 740 13.41
03/31 15:00 0.00 4.94 4.92 735 13.64
03/31 16:00 0.00 4.92 4.90 727 13.41
03/31 17:00 0.00 4.95 4.89 740 13.41
03/31 18:00 0.00 4.91 4.88 722 13.17
03/31 19:00 0.00 4.94 4.87 735 12.94
03/31 20:00 0.00 4.90 4.86 718 12.94
03/31 21:00 0.00 4.90 4.84 718 12.71
03/31 22:00 0.00 4.87 4.84 705 12.71
03/31 23:00 0.00 4.90 4.84 718 12.71